Minerva, OH (44657)

1:34 PM EDT on September 30, 2016 (GMT -0400)
OHDOT | | Change Station

Elev 1042 ft 40.73 °N, 81.10 °W | Updated 29 minutes ago

Light Rain
Light Rain
60.0 °F
Feels Like 60.0 °F
N
1.0
Wind Variable Wind from East
Gusts 4.0 mph

Today
High -- | Low -- °F
--% Chance of Precip.
Yesterday
High -- | Low -- °F
Precip. -- in
Pressure 30.12 in
Visibility 10.0 miles
Clouds Overcast 1100 ft
Dew Point 59.0 °F
Humidity 96%
Rainfall in
Snow Depth Not available.
7:20 AM 7:07 PM
Waning Crescent, 0% visible
METAR KCAK 301651Z 13008KT 10SM -RA OVC011 16/13 A3012 RMK AO2 SLP199 P0001 T01560133
Pressure 30.12 in
Visibility 10.0 miles
Clouds Overcast 1100 ft
Dew Point 59.0 °F
Humidity 96%
Rainfall in
Snow Depth Not available.
7:20 AM 7:07 PM
Waning Crescent, 0% visible
METAR KCAK 301651Z 13008KT 10SM -RA OVC011 16/13 A3012 RMK AO2 SLP199 P0001 T01560133

10-Day Weather Forecast

Almanac

Astronomy

Sep. 30, 2016 Rise Set
Actual Time
Civil Twilight
Nautical Twilight
Astronomical Twilight
Moon
Length of Visible Light
Length of Day
Tomorrow will be .
, % of the Moon is Illuminated

Today's Extremes

State Highs State Lows

Community

WunderPhotos

Upload Photos

1,942,756 photos uploaded!

WunderBlog® & News

Nearby

Air Quality

  Air Quality AQ Index Pollutant
Not available.

Snow Depth

Station Depth Elevation

Earthquake Activity

City Distance Mag. Time & Date
Minimum magnitude displayed is 2.5.

Coastal Water Temperatures

Place Temperature

Stations

Nearby Weather Stations

Station Location Temp. Windchill Dew Point Humidity Wind Precip. Elev Updated Type
                   

Watches & Warnings

There are currently no watches in effect.